ACT        NSW        VIC        QLD        SA        WA        TAS        NT        INFO        CALC            by VK5ZD

Past Date/Time: (dd/mm/yyyy hh:mm or blank for current data)    

  Atmospheric Gas Attenuation - ITU Rec 676-11   --------------- dB/100km ---------------
WA Stations Date Time Temp RH % AH g/m3 Dew Point Wind Direction Speed kph Gust kph Barometer mB Rainfall Since 9am 24GHz 47GHz 76GHz 122GHz 134GHz 241GHz
Albany Airport 06/05 05:00 12.8 75 8.4 8.5 7 9 1031.1 0.2 19.2 26.5 40.3 105.5 98.5 338.4
Badgingarra 06/05 05:00 11.7 70 7.32 6.4 20 24 1013.1 0 16.9 24.4 35.7 93.5 84.1 288.2
Barimunya 06/05 05:00 15.3 41 5.35 2.1 24 32 1018.3 0 12.6 20.8 27.2 70.8 57.2 194.2
Barrow Island 06/05 05:00 23.3 66 13.8 16.6 11 15 1015.3 0 30.1 31.5 55.5 146.5 153.3 531.7
Bedout Island 06/05 05:00 22.9 46 9.4 10.7 43 54 1013.6 0 20.8 24.6 38.4 100.9 97.2 335.3
Bickley 06/05 05:00 9.4 89 8.05 7.7 24 41 1013.1 0 18.6 26.3 39.8 104.3 96.5 331.4
Boolgeeda 06/05 05:00 17.2 32 4.69 0.4 17 24 1016.7 0 11.2 19.4 24.4 63.2 48.6 163.9
Bridgetown 06/05 05:00 3.1 98 5.87 2.8 0 0 1030.4 0.2 14.2 25.1 34.3 89.4 74.7 253.6
Broome 06/05 05:00 21.1 48 8.84 9.7 7 9 1011.4 0 19.8 24.2 37.1 97.5 92.4 318.5
Bunbury 06/05 05:00 11.2 100 10.14 11.2 9 13 1029.4 0 23.0 30.0 48.5 127.5 125.1 431.2
Busselton Airport 06/05 05:00 9.5 86 7.83 7.3 15 17 1029.5 0.2 18.1 26.5 39.5 103.4 94.7 324.7
Cape Leeuwin 06/05 05:00 15.4 70 9.2 10 35 41 1030 0 20.8 27.0 42.2 110.5 105.7 364.0
Cape Naturaliste 06/05 05:00 10.4 85 8.19 8 24 30 1028.9 0 18.9 26.8 40.5 106.2 98.5 338.1
Carnarvon 06/05 05:00 13.7 49 5.8 3.2 11 13 1019.1 0 13.6 21.8 29.4 76.6 63.7 216.9
Christmas Creek 06/05 05:00 13.7 41 4.86 0.7 9 11 1018.8 0 11.7 20.5 26.1 67.7 52.7 178.2
Christmas Island 06/05 05:00 26 89 21.67 24 15 24 1009.7 0 46.6 44.6 88.8 235.2 263.2 914.4
Cocos Island 06/05 05:00 26.8 95 24.18 25.9 11 15 1009.6 60.6 51.8 49.2 100.6 266.5 301.8 1048.6
Collie East 06/05 05:00 6.2 99 7.28 6.1 0 0 1013.1 0.2 17.1 25.9 38.1 99.8 89.7 307.2
Coondewanna 06/05 05:00 13 46 5.22 1.7 9 11 1018.4 0 12.4 21.1 27.6 71.6 57.4 194.4
Cunderdin Airport 06/05 05:00 10.4 87 8.39 8.3 15 20 1028.3 0 19.3 27.1 41.4 108.4 101.2 347.6
Curtin 06/05 05:00 21.3 62 11.56 13.7 9 11 1010.3 0 25.5 28.3 47.4 124.9 126.3 437.1
Dalwallinu 06/05 05:00 9.5 77 7.01 5.7 13 15 1026 0 16.4 25.0 36.0 94.1 83.3 285.0
Dwellingup 06/05 05:00 7.9 93 7.64 6.8 19 26 1029 0 17.8 26.7 39.5 103.4 94.0 322.0
Eliwana Airport 06/05 05:00 16 33 4.5 -0.2 11 13 1013.1 0 10.8 19.3 24.0 62.2 47.0 158.5
Esperance 06/05 05:00 14.9 61 7.77 7.5 6 7 1029.8 0.6 17.8 24.9 36.7 96.0 87.6 300.6
Esperance Airport 06/05 05:00 13.2 79 9.07 9.6 9 11 1029.9 1.6 20.6 27.5 42.8 112.2 106.9 368.1
Eucla 06/05 05:00 13.6 97 11.42 13.1 9 11 1027.1 4.2 25.6 31.3 52.6 138.4 139.4 481.7
Fitzroy Crossing 06/05 05:00 24.1 74 16.19 19.2 1012.4 0 35.1 35.2 65.1 172.0 185.0 642.1
Forrest 06/05 05:00 13.6 92 10.83 12.3 7 7 1027.6 0 24.4 30.3 50.0 131.4 130.9 451.8
Fortescue Dave Forrest 06/05 05:00 13.7 45 5.33 2 13 20 1018.3 0 12.6 21.1 27.7 72.1 58.1 197.2
Garden Island 06/05 05:00 13.4 81 9.42 10.2 19 28 1027.8 0 21.3 27.9 44.0 115.6 111.3 383.3
Geraldton Airport 06/05 05:00 15.4 50 6.57 5 22 28 1023.4 0 15.2 22.7 31.7 82.8 71.8 245.3
Gerangamete (Cfa) 06/05 06:50 12.2 80 8.63 8.9 11 13 1013.1 0 19.7 26.4 40.7 106.9 100.8 346.9
Giles* 06/05 06:30 12.4 49 5.35 2 22 30 1021.4 0 12.7 21.5 28.3 73.7 59.5 201.8
Gingin Airport 06/05 05:00 11.6 81 8.42 8.5 15 20 1027 0 19.3 26.8 40.8 106.9 99.9 343.4
Golden Grove 06/05 05:00 10.1 69 6.53 4.7 13 15 1024.6 0 15.3 24.0 33.8 88.1 76.3 260.5
Gooseberry Hill 06/05 05:00 11.4 82 8.42 8.4 32 52 1013.1 0 19.3 26.3 40.3 105.7 99.0 340.4
Gudai-Darri Mine 06/05 05:00 17.4 38 5.63 3 30 46 1013.1 0 13.1 20.5 27.3 71.2 58.6 199.4
Halls Creek 06/05 06:30 20 72 12.44 14.8 11 13 1014.5 0 27.4 30.3 52.1 137.2 140.8 487.7
Hopetoun North 06/05 05:00 13.4 88 10.23 11.5 6 9 1029.6 0 23.1 29.4 47.6 125.0 122.8 423.6
Iron Bridge Mine 06/05 05:00 17.9 32 4.89 1 13 19 1016.3 0 11.6 19.5 24.8 64.4 50.3 170.1
Jacup 06/05 05:00 7 93 7.21 5.9 6 7 1030.1 0 16.9 26.2 38.2 99.8 89.1 304.9
Jandakot 06/05 05:00 12.7 76 8.46 8.6 22 32 1027.7 0 19.3 26.5 40.4 105.9 99.1 340.7
Kalgoorlie-Boulder 06/05 05:00 9.8 89 8.26 8.1 13 17 1028 0 19.0 27.1 41.1 107.7 100.1 343.9
Kalumburu 06/05 06:30 24.4 84 18.69 21.5 7 13 1012 0 40.4 39.7 76.3 201.7 221.6 769.6
Karijini North 06/05 05:00 17.2 33 4.83 0.8 15 24 1017.7 0 11.5 19.6 24.9 64.5 50.1 169.4
Karratha 06/05 05:00 17.9 35 5.34 2.2 13 17 1015.7 0 12.5 20.1 26.3 68.3 55.2 187.3
Katanning Rs 06/05 05:00 7.3 99 7.83 7.2 2 4 1030.4 0.2 18.2 27.2 40.7 106.5 97.5 334.3
Koolan Island / Koolan Central 06/05 05:00 28 54 14.69 17.8 7 9 1013.1 0 31.6 31.2 55.8 147.2 155.7 540.4
Kununurra Airport 06/05 06:30 25.1 53 12.27 15.1 15 22 1013.6 0 26.7 28.3 48.1 126.7 129.6 449.0
Lake Grace 06/05 05:00 10.3 100 9.58 10.3 7 9 1029.9 0 21.9 29.3 46.6 122.4 118.4 407.7
Lancelin (Defence) 06/05 05:00 13.6 72 8.47 8.7 20 30 1025.1 0 19.3 26.2 39.9 104.6 97.9 336.6
Laverton 06/05 05:00 12.6 79 8.74 9.1 9 11 1025.9 0 19.9 27.0 41.6 108.9 102.9 353.9
Learmonth 06/05 05:00 15.1 81 10.45 11.9 13 15 1016.7 0 23.5 28.7 46.9 123.3 121.9 420.9
Legendre Island 06/05 05:00 23.8 38 8.17 8.6 37 48 1015.1 0 18.2 22.6 33.7 88.4 81.9 281.9
Leinster 06/05 05:00 10.3 70 6.71 5.1 13 19 1024.1 0 15.7 24.2 34.4 89.8 78.4 267.9
Leonora Airport 06/05 05:00 10.3 69 6.61 4.9 11 15 1026.1 0 15.5 24.2 34.1 88.9 77.3 263.8
Lombadina 06/05 05:00 24.1 43 9.41 10.7 11 15 1011 0 20.8 24.2 37.8 99.3 95.6 330.1
Mandora 06/05 05:00 19.8 34 5.81 3.5 15 22 1013.2 0 13.4 20.3 27.1 70.7 58.9 200.6
Mandurah 06/05 05:00 13.7 72 8.53 8.7 17 26 1028 0 19.4 26.4 40.2 105.4 98.8 339.7
Manjimup 06/05 05:00 8.5 99 8.46 8.4 9 11 1030.2 0.2 19.5 27.9 42.8 112.1 104.9 360.3
Marble Bar 06/05 05:00 18.9 31 5.02 1.4 19 24 1015.9 0 11.8 19.5 24.9 64.7 51.0 172.9
Mardie 06/05 05:00 18.3 46 7.19 6.5 11 13 1016.2 0 16.4 22.6 32.6 85.1 76.0 260.6
Meekatharra 06/05 05:00 12.1 63 6.76 5.3 17 22 1022.7 0 15.7 23.8 33.7 88.1 77.2 263.8
Millendon (Swan Valley) 06/05 05:00 13.3 72 8.32 8.4 6 15 1027.4 0 19.0 26.1 39.6 103.6 96.5 331.5
Morawa Airport 06/05 05:00 9.2 72 6.43 4.4 6 7 1025.1 0 15.1 24.1 33.8 88.1 75.9 259.0
Mount Keith 06/05 05:00 9.9 70 6.54 4.7 11 13 1024.3 0 15.4 24.1 33.9 88.4 76.6 261.5
Mount Magnet Airport 06/05 05:00 12 65 6.93 5.6 15 20 1023.9 0 16.1 24.1 34.5 90.1 79.5 272.0
Munglinup West 06/05 05:00 11.7 96 10.04 11.1 0 0 1029.9 0.2 22.8 29.6 47.8 125.6 122.8 423.5
Newdegate 06/05 05:00 10.5 93 9.02 9.4 6 9 1029.7 0 20.6 28.2 44.1 115.5 110.0 378.5
Newman Airport 06/05 05:00 14.8 45 5.7 3 19 28 1019.1 0 13.4 21.4 28.7 74.6 61.7 209.8
Norseman Airport 06/05 05:00 10.3 96 9.2 9.7 0 0 1029.1 0 21.0 28.6 44.9 117.9 112.8 388.3
North Island 06/05 05:00 20.1 56 9.73 11.1 26 32 1022.8 0 21.7 26.2 41.5 108.8 105.6 364.4
Onslow Airport 06/05 05:00 18.3 54 8.44 8.8 20 22 1016.7 0 19.0 24.5 37.2 97.4 91.2 313.7
Paraburdoo 06/05 05:00 17.2 36 5.27 2 26 37 1017.6 0 12.4 20.2 26.3 68.4 55.0 186.5
Pearce 06/05 05:00 12.9 71 8 7.8 11 17 1026.8 0 18.3 25.7 38.4 100.6 92.7 318.1
Perth 06/05 05:00 12.7 76 8.46 8.6 7 13 1027.6 0 19.3 26.5 40.4 105.9 99.1 340.7
Perth Airport 06/05 05:00 13.4 70 8.14 8 11 17 1027.2 0 18.6 25.8 38.8 101.5 93.9 322.7
Port Hedland 06/05 05:00 17.1 35 5.09 1.5 17 20 1015 0 12.0 19.9 25.7 66.7 52.9 179.3
Portable Btsa (Dfes) 06/05 04:50 15.1 44 5.68 3 4 6 1013.1 0 13.3 21.1 28.3 73.7 60.9 207.1
Portable Btsb (Dfes) 06/05 03:20 9.3 86 7.73 7.1 6 6 1013.1 0 17.9 25.8 38.5 100.9 92.3 316.4
Portable Btsd (Dfes) 06/05 04:50 7.5 93 7.45 6.5 13 13 1013.1 0 17.4 25.8 38.2 100.1 90.6 310.3
Portable Btsf (Dfes) 06/05 04:00 12.2 58 6.26 4.3 17 20 1013.1 0 14.7 22.7 31.4 82.1 70.2 239.5
Portable Btsh (Dfes) 06/05 04:50 13.4 91 10.58 12 4 6 1013.1 0.2 23.9 29.3 48.3 127.1 126.2 435.5
Portable Btsj (Dfes) 06/05 04:50 13.2 74 8.5 8.8 9 13 1013.1 0 19.4 25.9 39.7 104.2 97.8 336.4
Portable Btsk (Dfes) 06/05 04:50 14.3 54 6.63 5.3 4 4 1013.1 0 15.4 22.7 32.0 83.6 72.8 249.0
Portable Btsl (Dfes) 06/05 04:50 8.7 80 6.92 5.4 0 2 1013.1 0 16.2 24.6 35.4 92.8 82.1 280.6
Portable Btsm (Dfes) 06/05 04:50 12.8 53 5.94 3.4 4 6 1013.1 0 14.0 22.0 30.0 78.3 65.8 224.1
Portable Btsn (Dfes) 06/05 04:50 11.3 67 6.84 5.5 9 11 1013.1 0 15.9 23.8 34.0 88.9 78.3 267.9
Portable Btso (Dfes) 06/05 04:50 8.3 94 7.93 7.4 2 4 1013.1 0 18.4 26.4 39.8 104.4 96.3 330.2
Red Rocks Point 06/05 05:00 14.7 83 10.45 11.8 11 13 1027.3 0.6 23.5 29.2 47.6 125.2 123.6 426.6
Rocky Gully South 06/05 05:00 12.1 75 8.04 7.8 11 17 1013.1 0 18.5 25.5 38.4 100.6 93.1 319.6
Roebourne Airport 06/05 05:00 19.4 30 5 1.4 19 22 1016.2 0 11.8 19.4 24.7 64.2 50.5 171.2
Rottnest Island 06/05 05:00 14.4 72 8.9 9.4 22 32 1026.9 0 20.2 26.7 41.3 108.3 102.7 353.6
Salmon Gums Rs 06/05 05:00 12.1 100 10.73 12.1 0 0 1013.1 0 24.3 30.1 49.8 131.0 130.5 450.5
Shannon 06/05 05:00 8.6 94 8.08 7.7 6 9 1013.1 0 18.7 26.6 40.3 105.7 98.0 336.2
Shark Bay Airport 06/05 05:00 16.5 63 8.85 9.4 20 24 1019.8 0 20.0 25.8 39.7 104.2 98.8 340.1
Solomon Airport 06/05 05:00 15 37 4.74 0.4 7 9 1016.8 0 11.4 19.9 25.2 65.4 50.4 170.3
Southern Cross Airport 06/05 05:00 9.3 90 8.09 7.7 13 17 1028.4 0.2 18.7 27.0 40.7 106.5 98.5 337.9
Swanbourne 06/05 05:00 12.7 91 10.13 11.3 17 22 1013.1 0 22.9 28.8 46.8 123.0 120.9 417.0
Telfer 06/05 05:00 17.6 33 4.95 1.2 28 33 1016 0 11.7 19.7 25.1 65.1 51.1 173.0
Thevenard Island 06/05 05:00 22.6 62 12.45 15 28 33 1015.9 0 27.3 29.5 50.5 133.0 136.5 472.6
Troughton Island 06/05 06:30 27.2 79 20.56 23.2 24 30 1011.7 0 44.0 41.9 82.2 217.5 241.8 840.3
Truscott 06/05 06:30 24.6 86 19.36 22.1 9 13 1011.3 0 41.8 40.8 79.2 209.5 231.3 803.4
Walpole North 06/05 05:00 12.9 79 8.9 9.4 6 13 1030.5 0 20.3 27.3 42.3 110.8 105.1 361.5
Wandering 06/05 05:00 7 93 7.21 5.9 6 9 1013.1 0 16.9 25.6 37.4 98.0 87.9 300.6
Warburton 06/05 06:30 11.3 67 6.84 5.4 20 32 1023.2 0.6 15.9 24.2 34.4 89.9 79.0 270.2
West Angelas 06/05 05:00 13.7 46 5.45 2.3 19 26 1017.3 1.8 12.9 21.3 28.1 73.1 59.5 202.0
West Musgrave Airport 06/05 05:00 11.3 63 6.43 4.5 15 19 1013.1 0 15.1 23.1 32.4 84.7 73.1 249.7
Wiluna Airport 06/05 05:00 9.6 72 6.6 4.8 15 20 1023.6 0 15.5 24.2 34.2 89.3 77.7 265.1
Witchcliffe West 06/05 05:00 9.5 99 9.01 9.4 15 19 1029.8 0 20.7 28.6 44.6 116.9 111.3 383.0
Wyndham Airport 06/05 06:30 25.9 61 14.77 17.8 9 13 1013.1 0 31.9 32.1 57.6 152.1 161.0 558.9
Yampi Sound (Defence) 06/05 05:00 19.2 95 15.66 18.4 4 9 1014.8 0 34.4 36.4 67.0 177.1 189.6 657.5

Last Refresh: 06-May-2026 06:36:03

Bureau of Meteorology